createdAt,value
2022-08-18T00:01:14.557Z,58.45
2022-08-18T00:03:56.795Z,58.86
2022-08-18T00:06:29.289Z,58.77
2022-08-18T00:09:03.076Z,58.94
2022-08-18T00:11:40.933Z,58.39
2022-08-18T00:14:21.252Z,58.23
2022-08-18T00:16:51.486Z,58.34
2022-08-18T00:19:18.404Z,58.43
2022-08-18T00:21:45.313Z,59.20
2022-08-18T00:24:12.229Z,58.86
2022-08-18T00:26:39.138Z,58.63
2022-08-18T00:29:08.508Z,59.63
2022-08-18T00:31:35.603Z,59.65
2022-08-18T00:34:02.592Z,59.94
2022-08-18T00:36:32.079Z,60.68
2022-08-18T00:38:59.018Z,61.08
2022-08-18T00:41:26.655Z,61.34
2022-08-18T00:43:55.506Z,61.62
2022-08-18T00:46:30.287Z,62.00
2022-08-18T00:48:58.009Z,62.26
2022-08-18T00:51:46.771Z,61.84
2022-08-18T00:54:25.709Z,62.03
2022-08-18T00:56:59.036Z,62.69
2022-08-18T00:59:51.754Z,63.40
2022-08-18T01:02:29.526Z,63.42
2022-08-18T01:05:00.020Z,65.48
2022-08-18T01:07:35.803Z,65.71
2022-08-18T01:10:05.469Z,65.88
2022-08-18T01:12:46.449Z,64.92
2022-08-18T01:15:29.092Z,60.59
2022-08-18T01:18:24.739Z,61.35
2022-08-18T01:21:39.527Z,61.75
2022-08-18T01:24:10.295Z,62.16
2022-08-18T01:26:44.345Z,62.87
2022-08-18T01:29:19.240Z,63.54
2022-08-18T01:31:56.103Z,63.12
2022-08-18T01:34:27.475Z,63.37
2022-08-18T01:36:55.212Z,63.00
2022-08-18T01:41:22.509Z,62.77
2022-08-18T01:42:10.611Z,62.93
2022-08-18T01:44:41.542Z,63.24
2022-08-18T01:47:11.512Z,63.45
2022-08-18T01:49:43.062Z,63.95
2022-08-18T01:52:17.918Z,63.37
2022-08-18T01:54:44.879Z,62.85
2022-08-18T01:57:13.414Z,62.57
2022-08-18T01:59:42.595Z,62.61
2022-08-18T02:02:18.160Z,62.58
2022-08-18T02:04:47.445Z,61.07
2022-08-18T02:07:14.979Z,61.46
2022-08-18T02:09:43.526Z,61.42
2022-08-18T02:12:10.750Z,61.80
2022-08-18T02:14:38.377Z,61.78
2022-08-18T02:17:09.191Z,61.73
2022-08-18T02:19:44.489Z,62.12
2022-08-18T02:22:15.504Z,62.42
2022-08-18T02:24:43.119Z,62.67
2022-08-18T02:27:12.081Z,63.16
2022-08-18T02:29:39.272Z,62.90
2022-08-18T02:32:07.387Z,62.43
2022-08-18T02:34:34.866Z,62.72
2022-08-18T02:37:02.153Z,62.62
2022-08-18T02:39:30.358Z,62.76
2022-08-18T02:41:57.410Z,62.32
2022-08-18T02:44:24.347Z,62.55
2022-08-18T02:46:54.813Z,61.98
2022-08-18T02:49:22.106Z,62.75
2022-08-18T02:51:51.098Z,63.05
2022-08-18T02:54:20.604Z,62.22
2022-08-18T02:56:47.644Z,62.56
2022-08-18T02:59:19.908Z,62.40
2022-08-18T03:01:51.366Z,63.05
2022-08-18T03:04:28.551Z,63.00
2022-08-18T03:06:58.484Z,62.55
2022-08-18T03:09:25.991Z,62.87
2022-08-18T03:11:53.528Z,63.17
2022-08-18T03:14:20.670Z,63.03
2022-08-18T03:16:54.814Z,62.89
2022-08-18T03:19:28.223Z,62.50
2022-08-18T03:21:58.180Z,62.31
2022-08-18T03:24:27.899Z,63.09
2022-08-18T03:26:59.499Z,62.98
2022-08-18T03:29:31.318Z,62.93
2022-08-18T03:32:02.044Z,62.18
2022-08-18T03:34:29.708Z,62.54
2022-08-18T03:36:58.221Z,62.41
2022-08-18T03:39:27.601Z,62.11
2022-08-18T03:41:57.909Z,62.66
2022-08-18T03:44:28.858Z,61.93
2022-08-18T03:46:55.838Z,62.54
2022-08-18T03:49:22.743Z,62.38
2022-08-18T03:51:51.617Z,62.40
2022-08-18T03:54:19.060Z,62.20
2022-08-18T03:56:49.265Z,62.22
2022-08-18T03:59:20.897Z,63.31
2022-08-18T04:01:50.659Z,63.09
2022-08-18T04:04:22.963Z,63.72
2022-08-18T04:06:59.987Z,63.90
2022-08-18T04:09:29.402Z,63.87
2022-08-18T04:11:58.893Z,64.19
2022-08-18T04:14:32.973Z,64.40
2022-08-18T04:17:00.264Z,64.36
2022-08-18T04:19:28.082Z,64.37
2022-08-18T04:21:57.965Z,64.98
2022-08-18T04:24:28.183Z,65.00
2022-08-18T04:26:57.362Z,64.84
2022-08-18T04:29:24.698Z,65.00
2022-08-18T04:31:52.118Z,64.69
2022-08-18T04:34:22.638Z,65.19
2022-08-18T04:36:53.845Z,64.72
2022-08-18T04:39:22.572Z,65.05
2022-08-18T04:41:49.671Z,65.24
2022-08-18T04:44:18.214Z,65.53
2022-08-18T04:46:53.854Z,65.46
2022-08-18T04:49:26.099Z,65.18
2022-08-18T04:52:26.722Z,65.32
2022-08-18T04:55:01.666Z,65.11
2022-08-18T04:57:29.140Z,64.94
2022-08-18T05:00:00.666Z,65.08
2022-08-18T05:02:28.052Z,65.53
2022-08-18T05:04:55.013Z,65.30
2022-08-18T05:07:23.027Z,65.83
2022-08-18T05:09:50.869Z,65.12
2022-08-18T05:12:17.939Z,65.39
2022-08-18T05:14:48.107Z,65.44
2022-08-18T05:17:16.091Z,65.42
2022-08-18T05:19:44.601Z,65.91
2022-08-18T05:22:17.789Z,65.18
2022-08-18T05:24:46.349Z,65.48
2022-08-18T05:27:13.660Z,64.73
2022-08-18T05:29:45.689Z,65.21
2022-08-18T05:32:41.066Z,64.96
2022-08-18T05:35:07.572Z,65.28
2022-08-18T05:38:27.962Z,64.74
2022-08-18T05:41:14.295Z,64.20
2022-08-18T05:43:51.456Z,64.26
2022-08-18T05:46:22.416Z,64.81
2022-08-18T05:48:49.944Z,64.04
2022-08-18T05:51:35.597Z,63.54
2022-08-18T05:54:23.292Z,63.51
2022-08-18T05:56:54.633Z,63.51
2022-08-18T05:59:31.641Z,63.21
2022-08-18T06:02:13.569Z,63.23
2022-08-18T06:04:57.197Z,63.58
2022-08-18T06:07:53.804Z,63.88
2022-08-18T06:10:20.966Z,63.51
2022-08-18T06:12:58.038Z,63.56
2022-08-18T06:15:31.336Z,63.48
2022-08-18T06:18:52.813Z,63.76
2022-08-18T06:22:05.473Z,63.63
2022-08-18T06:25:01.448Z,63.95
2022-08-18T06:28:03.052Z,64.12
2022-08-18T06:30:42.045Z,64.10
2022-08-18T06:33:47.029Z,64.65
2022-08-18T06:36:38.142Z,64.24
2022-08-18T06:39:21.317Z,63.29
2022-08-18T06:41:50.920Z,63.38
2022-08-18T06:44:45.693Z,63.05
2022-08-18T06:47:26.185Z,63.02
2022-08-18T06:50:33.402Z,63.42
2022-08-18T06:53:06.848Z,63.71
2022-08-18T06:55:53.004Z,63.30
2022-08-18T06:58:26.974Z,63.71
2022-08-18T07:00:56.129Z,64.03
2022-08-18T07:03:35.338Z,63.91
2022-08-18T07:06:23.705Z,62.53
2022-08-18T07:08:53.878Z,62.59
2022-08-18T07:11:30.429Z,62.51
2022-08-18T07:14:22.740Z,62.52
2022-08-18T07:17:04.862Z,62.29
2022-08-18T07:19:32.436Z,61.84
2022-08-18T07:22:13.934Z,61.11
2022-08-18T07:24:54.431Z,59.98
2022-08-18T07:27:41.394Z,59.82
2022-08-18T07:30:27.866Z,60.48
2022-08-18T07:33:03.208Z,60.70
2022-08-18T07:36:03.674Z,60.32
2022-08-18T07:38:45.331Z,59.79
2022-08-18T07:41:22.724Z,59.91
2022-08-18T07:43:52.186Z,59.76
2022-08-18T07:46:51.042Z,59.08
2022-08-18T07:49:24.809Z,58.52
2022-08-18T07:52:36.091Z,58.28
2022-08-18T07:55:29.847Z,58.40
2022-08-18T07:58:03.308Z,58.61
2022-08-18T08:03:42.789Z,58.60
2022-08-18T08:06:22.701Z,57.91
2022-08-18T08:09:35.684Z,56.57
2022-08-18T08:12:42.385Z,55.77
2022-08-18T08:15:43.388Z,56.04
2022-08-18T08:18:25.083Z,56.13
2022-08-18T08:21:04.613Z,55.67
2022-08-18T08:23:47.960Z,56.35
2022-08-18T08:26:57.172Z,55.83
2022-08-18T08:29:39.514Z,55.57
2022-08-18T08:32:29.813Z,55.37
2022-08-18T08:35:11.529Z,54.71
2022-08-18T08:38:39.354Z,53.79
2022-08-18T08:41:03.434Z,53.67
2022-08-18T08:43:37.636Z,54.38
2022-08-18T08:46:18.982Z,53.50
2022-08-18T08:49:04.128Z,53.01
2022-08-18T08:51:59.102Z,52.67
2022-08-18T08:54:38.344Z,52.20
2022-08-18T08:57:05.941Z,52.41
2022-08-18T08:59:39.279Z,51.76
2022-08-18T09:02:06.090Z,51.65
2022-08-18T09:05:17.555Z,51.41
2022-08-18T09:08:18.941Z,51.19
2022-08-18T09:11:00.496Z,51.65
2022-08-18T09:14:03.632Z,51.38
2022-08-18T09:17:00.703Z,50.61
2022-08-18T09:20:01.536Z,49.74
2022-08-18T09:23:05.078Z,49.80
2022-08-18T09:25:39.344Z,49.63
2022-08-18T09:28:30.304Z,49.64
2022-08-18T09:31:03.248Z,47.95
2022-08-18T09:33:45.440Z,48.55
2022-08-18T09:37:12.758Z,47.78
2022-08-18T09:40:33.515Z,48.17
2022-08-18T09:43:31.596Z,47.94
2022-08-18T09:46:00.910Z,48.17
2022-08-18T09:50:38.067Z,48.31
2022-08-18T09:51:40.061Z,47.70
2022-08-18T09:54:25.203Z,46.84
2022-08-18T09:56:54.190Z,46.54
2022-08-18T09:59:34.953Z,45.43
2022-08-18T10:02:32.452Z,45.22
2022-08-18T10:05:19.026Z,45.68
2022-08-18T10:08:06.769Z,45.41
2022-08-18T10:14:26.261Z,44.85
2022-08-18T10:20:34.738Z,44.45
2022-08-18T10:23:04.434Z,44.84
2022-08-18T10:25:46.586Z,43.77
2022-08-18T10:29:05.682Z,43.33
2022-08-18T10:31:58.556Z,42.27
2022-08-18T10:37:43.617Z,42.18
2022-08-18T10:40:13.312Z,41.86
2022-08-18T10:42:49.769Z,42.26
2022-08-18T10:45:27.062Z,41.85
2022-08-18T10:48:19.503Z,42.35
2022-08-18T10:51:23.392Z,42.80
2022-08-18T10:54:20.700Z,41.59
2022-08-18T10:56:57.766Z,41.28
2022-08-18T10:59:57.596Z,40.66
2022-08-18T11:03:02.645Z,40.06
2022-08-18T11:05:42.850Z,39.95
2022-08-18T11:08:20.019Z,38.89
2022-08-18T11:11:27.583Z,37.50
2022-08-18T11:14:23.652Z,38.03
2022-08-18T11:17:26.959Z,38.68
2022-08-18T11:19:55.436Z,37.61
2022-08-18T11:22:34.275Z,37.46
2022-08-18T11:25:29.068Z,38.48
2022-08-18T11:27:56.979Z,38.83
2022-08-18T11:30:31.473Z,38.23
2022-08-18T11:33:02.788Z,36.75
2022-08-18T11:35:45.830Z,37.22
2022-08-18T11:38:20.771Z,38.23
2022-08-18T11:41:12.605Z,38.79
2022-08-18T11:43:43.045Z,39.54
2022-08-18T11:46:41.558Z,39.29
2022-08-18T11:49:33.414Z,38.84
2022-08-18T11:52:19.831Z,37.33
2022-08-18T11:55:14.530Z,37.72
2022-08-18T11:57:58.572Z,37.62
2022-08-18T12:03:46.219Z,38.13
2022-08-18T12:06:26.670Z,37.69
2022-08-18T12:08:58.899Z,37.56
2022-08-18T12:11:41.310Z,37.79
2022-08-18T12:14:29.846Z,36.72
2022-08-18T12:17:00.004Z,37.45
2022-08-18T12:19:30.772Z,37.54
2022-08-18T12:22:01.651Z,37.81
2022-08-18T12:24:36.669Z,38.02
2022-08-18T12:27:20.921Z,37.63
2022-08-18T12:29:50.408Z,38.00
2022-08-18T12:32:49.666Z,38.38
2022-08-18T12:35:09.266Z,37.90
2022-08-18T12:40:25.744Z,37.83
2022-08-18T12:42:55.746Z,37.27
2022-08-18T12:45:25.798Z,37.03
2022-08-18T12:47:54.406Z,35.94
2022-08-18T12:50:31.375Z,36.35
2022-08-18T12:53:02.507Z,35.88
2022-08-18T12:55:35.176Z,37.02
2022-08-18T12:58:05.242Z,37.00
2022-08-18T13:00:32.792Z,36.96
2022-08-18T13:02:59.959Z,36.33
2022-08-18T13:05:30.077Z,36.66
2022-08-18T13:08:04.459Z,37.13
2022-08-18T13:10:45.100Z,37.89
2022-08-18T13:13:15.480Z,37.07
2022-08-18T13:15:44.509Z,36.08
2022-08-18T13:18:28.586Z,36.16
2022-08-18T13:20:58.977Z,36.33
2022-08-18T13:23:30.593Z,35.74
2022-08-18T13:26:02.096Z,36.24
2022-08-18T13:28:35.560Z,35.75
2022-08-18T13:31:05.458Z,36.07
2022-08-18T13:33:56.413Z,35.98
2022-08-18T13:36:20.384Z,35.85
2022-08-18T13:38:50.964Z,36.14
2022-08-18T13:43:52.175Z,35.62
2022-08-18T13:46:24.234Z,35.42
2022-08-18T13:49:03.255Z,35.51
2022-08-18T13:51:31.181Z,35.77
2022-08-18T13:54:17.952Z,35.81
2022-08-18T13:56:51.684Z,36.08
2022-08-18T13:59:21.719Z,36.36
2022-08-18T14:01:53.096Z,35.86
2022-08-18T14:04:22.682Z,36.22
2022-08-18T14:06:57.519Z,36.26
2022-08-18T14:09:35.718Z,36.49
2022-08-18T14:12:27.115Z,36.97
2022-08-18T14:14:58.095Z,37.14
2022-08-18T14:17:26.545Z,37.15
2022-08-18T14:20:14.965Z,37.31
2022-08-18T14:23:08.425Z,37.07
2022-08-18T14:25:53.850Z,37.31
2022-08-18T14:28:24.687Z,37.01
2022-08-18T14:30:54.959Z,36.36
2022-08-18T14:33:49.879Z,36.89
2022-08-18T14:36:14.170Z,37.10
2022-08-18T14:38:41.749Z,36.82
2022-08-18T14:41:13.084Z,36.36
2022-08-18T14:44:04.059Z,37.34
2022-08-18T14:46:32.720Z,36.81
2022-08-18T14:49:04.311Z,36.73
2022-08-18T14:51:33.624Z,36.41
2022-08-18T14:54:02.050Z,36.08
2022-08-18T14:56:29.391Z,35.89
2022-08-18T14:58:56.848Z,35.05
2022-08-18T15:01:24.453Z,35.71
2022-08-18T15:03:51.543Z,35.75
2022-08-18T15:06:23.122Z,35.64
2022-08-18T15:08:57.026Z,35.66
2022-08-18T15:11:25.275Z,35.51
2022-08-18T15:13:54.936Z,36.42
2022-08-18T15:16:31.622Z,35.36
2022-08-18T15:19:00.391Z,36.12
2022-08-18T15:21:47.805Z,36.39
2022-08-18T15:24:34.174Z,36.67
2022-08-18T15:27:10.549Z,37.00
2022-08-18T15:29:46.567Z,36.69
2022-08-18T15:32:15.324Z,36.89
2022-08-18T15:34:47.208Z,37.04
2022-08-18T15:37:20.410Z,37.23
2022-08-18T15:40:03.269Z,36.46
2022-08-18T15:42:30.523Z,36.57
2022-08-18T15:45:11.830Z,36.77
2022-08-18T15:47:40.216Z,36.83
2022-08-18T15:50:25.416Z,36.55
2022-08-18T15:52:58.086Z,36.52
2022-08-18T15:55:29.207Z,36.78
2022-08-18T15:58:03.513Z,36.50
2022-08-18T16:00:43.827Z,34.18
2022-08-18T16:03:14.621Z,33.39
2022-08-18T16:05:51.586Z,33.09
2022-08-18T16:08:22.482Z,32.48
2022-08-18T16:10:49.835Z,32.26
2022-08-18T16:13:17.143Z,32.22
2022-08-18T16:15:48.044Z,32.95
2022-08-18T16:18:17.542Z,32.35
2022-08-18T16:20:45.293Z,32.24
2022-08-18T16:23:13.344Z,32.68
2022-08-18T16:25:42.512Z,32.59
2022-08-18T16:28:10.499Z,32.87
2022-08-18T16:30:37.406Z,32.95
2022-08-18T16:33:06.713Z,33.32
2022-08-18T16:35:35.545Z,33.57
2022-08-18T16:38:08.799Z,33.76
2022-08-18T16:40:37.383Z,33.86
2022-08-18T16:43:04.939Z,33.85
2022-08-18T16:45:33.398Z,33.94
2022-08-18T16:48:00.920Z,34.15
2022-08-18T16:50:28.429Z,34.60
2022-08-18T16:52:57.328Z,34.68
2022-08-18T16:55:24.267Z,34.67
2022-08-18T16:58:23.133Z,34.72
2022-08-18T17:01:17.816Z,35.38
2022-08-18T17:04:04.823Z,35.05
2022-08-18T17:06:47.315Z,35.35
2022-08-18T17:09:15.738Z,36.02
2022-08-18T17:11:51.273Z,35.37
2022-08-18T17:14:27.930Z,36.63
2022-08-18T17:16:55.911Z,36.37
2022-08-18T17:19:26.139Z,36.33
2022-08-18T17:21:54.110Z,35.69
2022-08-18T17:24:31.183Z,34.86
2022-08-18T17:27:26.643Z,34.58
2022-08-18T17:30:20.100Z,35.04
2022-08-18T17:33:00.609Z,35.06
2022-08-18T17:35:34.411Z,35.07
2022-08-18T17:38:11.683Z,34.79
2022-08-18T17:40:55.512Z,35.29
2022-08-18T17:43:29.118Z,35.29
2022-08-18T17:46:02.080Z,35.76
2022-08-18T17:48:40.920Z,36.27
2022-08-18T17:51:34.429Z,35.82
2022-08-18T17:54:27.662Z,36.60
2022-08-18T17:57:01.810Z,36.84
2022-08-18T17:59:45.604Z,36.63
2022-08-18T18:02:29.968Z,36.48
2022-08-18T18:05:04.875Z,37.66
2022-08-18T18:07:36.884Z,37.55
2022-08-18T18:11:03.993Z,37.69
2022-08-18T18:13:32.434Z,37.79
2022-08-18T18:16:20.536Z,39.02
2022-08-18T18:18:59.973Z,38.69
2022-08-18T18:21:55.301Z,39.08
2022-08-18T18:24:23.603Z,38.86
2022-08-18T18:26:52.125Z,38.73
2022-08-18T18:29:35.674Z,39.67
2022-08-18T18:32:24.534Z,40.40
2022-08-18T18:35:13.487Z,40.36
2022-08-18T18:37:51.639Z,40.85
2022-08-18T18:41:00.899Z,41.99
2022-08-18T18:43:33.969Z,42.01
2022-08-18T18:46:23.309Z,41.75
2022-08-18T18:49:24.151Z,42.42
2022-08-18T18:52:16.923Z,41.98
2022-08-18T18:55:18.042Z,42.13
2022-08-18T18:57:53.312Z,42.56
2022-08-18T19:00:54.110Z,42.60
2022-08-18T19:03:39.096Z,43.07
2022-08-18T19:06:29.374Z,43.31
2022-08-18T19:09:08.543Z,43.95
2022-08-18T19:11:54.019Z,44.42
2022-08-18T19:14:28.584Z,44.63
2022-08-18T19:17:25.063Z,44.77
2022-08-18T19:19:59.206Z,44.97
2022-08-18T19:22:37.085Z,44.66
2022-08-18T19:25:14.531Z,44.97
2022-08-18T19:27:50.102Z,45.10
2022-08-18T19:30:21.378Z,44.87
2022-08-18T19:33:02.445Z,44.74
2022-08-18T19:35:59.563Z,45.19
2022-08-18T19:38:35.746Z,45.24
2022-08-18T19:41:20.714Z,45.09
2022-08-18T19:44:44.250Z,45.06
2022-08-18T19:47:31.694Z,45.65
2022-08-18T19:50:16.769Z,45.60
2022-08-18T19:53:01.714Z,45.59
2022-08-18T19:56:21.505Z,45.87
2022-08-18T19:59:15.685Z,45.55
2022-08-18T20:02:29.375Z,45.80
2022-08-18T20:05:22.589Z,45.88
2022-08-18T20:08:32.318Z,45.98
2022-08-18T20:11:46.403Z,45.82
2022-08-18T20:14:18.856Z,45.92
2022-08-18T20:17:10.384Z,46.22
2022-08-18T20:20:04.227Z,46.07
2022-08-18T20:22:42.388Z,46.31
2022-08-18T20:25:16.406Z,46.06
2022-08-18T20:28:06.398Z,46.33
2022-08-18T20:31:06.085Z,46.72
2022-08-18T20:33:43.367Z,46.62
2022-08-18T20:36:28.010Z,47.31
2022-08-18T20:38:59.291Z,47.24
2022-08-18T20:41:30.064Z,48.23
2022-08-18T20:44:28.706Z,48.04
2022-08-18T20:47:34.670Z,48.21
2022-08-18T20:50:45.841Z,48.22
2022-08-18T20:53:49.860Z,48.29
2022-08-18T20:56:47.060Z,48.34
2022-08-18T20:59:24.903Z,48.28
2022-08-18T21:02:06.326Z,48.35
2022-08-18T21:04:51.949Z,48.61
2022-08-18T21:07:36.624Z,48.78
2022-08-18T21:10:20.914Z,48.90
2022-08-18T21:12:54.227Z,49.18
2022-08-18T21:15:38.073Z,49.34
2022-08-18T21:18:22.514Z,49.50
2022-08-18T21:20:52.015Z,48.96
2022-08-18T21:23:33.807Z,49.62
2022-08-18T21:26:12.571Z,50.15
2022-08-18T21:28:44.832Z,50.21
2022-08-18T21:31:44.338Z,50.54
2022-08-18T21:34:35.583Z,50.70
2022-08-18T21:37:09.931Z,50.68
2022-08-18T21:39:58.429Z,50.83
2022-08-18T21:42:31.701Z,50.73
2022-08-18T21:45:00.824Z,50.64
2022-08-18T21:47:35.607Z,50.87
2022-08-18T21:50:18.736Z,50.93
2022-08-18T21:53:11.657Z,51.20
2022-08-18T21:55:51.414Z,50.98
2022-08-18T21:58:45.321Z,51.29
2022-08-18T22:01:25.706Z,51.14
2022-08-18T22:04:02.925Z,51.24
2022-08-18T22:06:41.374Z,51.36
2022-08-18T22:09:29.662Z,51.56
2022-08-18T22:12:49.812Z,51.64
2022-08-18T22:15:20.168Z,51.65
2022-08-18T22:18:25.820Z,52.01
2022-08-18T22:20:57.354Z,51.66
2022-08-18T22:23:57.736Z,51.68
2022-08-18T22:26:34.807Z,51.88
2022-08-18T22:29:13.454Z,52.77
2022-08-18T22:31:48.244Z,53.03
2022-08-18T22:34:27.151Z,53.17
2022-08-18T22:37:09.856Z,53.25
2022-08-18T22:39:48.015Z,52.97
2022-08-18T22:42:17.163Z,52.88
2022-08-18T22:44:44.628Z,52.76
2022-08-18T22:47:12.715Z,52.71
2022-08-18T22:49:40.175Z,52.86
2022-08-18T22:52:18.894Z,52.57
2022-08-18T22:54:46.276Z,52.32
2022-08-18T22:57:17.489Z,52.30
2022-08-18T22:59:46.883Z,52.70
2022-08-18T23:02:16.239Z,52.37
2022-08-18T23:04:49.322Z,52.58
2022-08-18T23:07:16.278Z,53.02
2022-08-18T23:09:43.523Z,53.29
2022-08-18T23:12:15.724Z,52.95
2022-08-18T23:14:46.083Z,53.19
2022-08-18T23:17:14.125Z,53.37
2022-08-18T23:19:41.283Z,53.52
2022-08-18T23:22:10.121Z,53.84
2022-08-18T23:24:38.021Z,53.59
2022-08-18T23:27:06.171Z,53.70
2022-08-18T23:29:36.843Z,53.46
2022-08-18T23:32:05.807Z,53.51
2022-08-18T23:34:35.291Z,53.86
2022-08-18T23:37:03.654Z,53.80
2022-08-18T23:39:34.957Z,53.92
2022-08-18T23:42:03.473Z,53.62
2022-08-18T23:44:31.324Z,54.36
2022-08-18T23:47:00.393Z,54.07
2022-08-18T23:49:30.338Z,54.30
2022-08-18T23:51:59.363Z,54.74
2022-08-18T23:54:31.229Z,54.77
2022-08-18T23:56:58.487Z,54.82
2022-08-18T23:59:27.156Z,55.03
